Time;durP1;ratioP1;P1;durP2;ratioP2;P2;SDS_P1;SDS_P2;PMS_P1;PMS_P2;Temp;Humidity;BMP_temperature;BMP_pressure;BME280_temperature;BME280_humidity;BME280_pressure;Samples;Min_cycle;Max_cycle;Signal;HPM_P1;HPM_P2
2021/10/28 00:14:34;;;;;;;76.33;30.45;;;;;;;-0.36;49.02;101629.80;1737143;82;21220;-63
2021/10/28 00:17:16;;;;;;;71.35;30.95;;;;;;;-0.39;49.09;101637.58;1737315;82;21265;-65
2021/10/28 00:19:47;;;;;;;76.50;29.15;;;;;;;-0.44;49.12;101632.53;1736668;82;21221;-64
2021/10/28 00:22:22;;;;;;;54.53;21.90;;;;;;;-0.48;49.19;101639.07;1737375;82;21189;-63
2021/10/28 00:24:56;;;;;;;71.80;28.50;;;;;;;-0.51;49.29;101641.27;1735497;82;21161;-63
2021/10/28 00:27:33;;;;;;;66.35;27.98;;;;;;;-0.55;49.31;101634.94;1737922;82;21256;-63
2021/10/28 00:30:07;;;;;;;86.95;33.67;;;;;;;-0.58;49.47;101632.42;1736141;82;21232;-63
2021/10/28 00:32:42;;;;;;;82.57;33.05;;;;;;;-0.59;49.59;101632.00;1737284;82;21145;-63
2021/10/28 00:35:14;;;;;;;59.73;23.80;;;;;;;-0.64;49.62;101632.09;1736751;82;21165;-63
2021/10/28 00:37:50;;;;;;;77.35;31.85;;;;;;;-0.72;49.79;101628.40;1737394;82;21181;-62
2021/10/28 00:40:28;;;;;;;84.35;29.95;;;;;;;-0.78;49.88;101625.97;1735480;82;21514;-62
2021/10/28 00:43:04;;;;;;;76.85;29.05;;;;;;;-0.81;50.08;101630.31;1737312;82;21181;-62
2021/10/28 00:45:45;;;;;;;70.17;28.55;;;;;;;-0.83;50.13;101624.36;1714541;82;21157;-62
2021/10/28 00:48:22;;;;;;;74.32;28.62;;;;;;;-0.83;50.11;101629.06;1736782;82;21701;-62
2021/10/28 00:50:55;;;;;;;78.57;29.37;;;;;;;-0.82;50.15;101627.34;1736237;82;21277;-62
2021/10/28 00:53:29;;;;;;;72.55;28.25;;;;;;;-0.82;50.14;101620.49;1737132;82;21162;-62
2021/10/28 00:56:06;;;;;;;63.58;27.17;;;;;;;-0.81;50.06;101623.88;1736830;82;21272;-63
2021/10/28 00:58:49;;;;;;;72.40;28.57;;;;;;;-0.81;49.93;101623.45;1735675;82;21201;-62
2021/10/28 01:01:25;;;;;;;72.78;28.23;;;;;;;-0.80;49.87;101623.87;1735088;82;21764;-63
2021/10/28 01:04:05;;;;;;;67.70;27.85;;;;;;;-0.78;49.79;101618.69;1737086;82;21154;-62
2021/10/28 01:06:39;;;;;;;71.95;28.00;;;;;;;-0.81;49.73;101610.59;1735581;82;21730;-62
2021/10/28 01:09:14;;;;;;;68.02;26.97;;;;;;;-0.82;49.71;101613.21;1737118;82;21157;-62
2021/10/28 01:11:52;;;;;;;68.65;26.45;;;;;;;-0.88;49.70;101606.89;1740834;82;21157;-63
2021/10/28 01:14:30;;;;;;;65.10;27.75;;;;;;;-0.91;49.70;101608.27;1747271;82;21197;-62
2021/10/28 01:17:15;;;;;;;73.07;29.45;;;;;;;-0.97;49.68;101601.52;1745846;82;21335;-63
2021/10/28 01:19:55;;;;;;;68.65;28.47;;;;;;;-0.99;49.76;101608.84;1747152;82;21836;-62
2021/10/28 01:22:32;;;;;;;70.52;27.37;;;;;;;-1.03;49.83;101609.36;1745926;82;21287;-62
2021/10/28 01:25:10;;;;;;;70.17;27.73;;;;;;;-1.02;49.89;101611.03;1747214;82;21316;-63
2021/10/28 01:27:45;;;;;;;70.55;28.10;;;;;;;-1.04;49.87;101610.22;1745746;82;21177;-62
2021/10/28 01:30:22;;;;;;;66.77;27.32;;;;;;;-1.02;49.86;101615.32;1746975;82;21743;-63
2021/10/28 01:33:01;;;;;;;63.45;26.42;;;;;;;-1.03;49.86;101621.36;1747242;82;21672;-62
2021/10/28 01:35:37;;;;;;;72.32;27.30;;;;;;;-1.04;49.87;101612.80;1747317;82;21193;-63
2021/10/28 01:38:13;;;;;;;68.45;28.15;;;;;;;-1.04;49.86;101616.65;1747017;82;21149;-63
2021/10/28 01:40:58;;;;;;;68.97;27.32;;;;;;;-1.03;49.86;101621.36;1745835;82;21189;-62
2021/10/28 01:43:37;;;;;;;79.37;30.80;;;;;;;-1.02;49.86;101623.89;1747204;82;21147;-62
2021/10/28 01:46:13;;;;;;;73.72;29.05;;;;;;;-1.02;49.94;101618.75;1747055;82;21157;-64
2021/10/28 01:48:53;;;;;;;77.35;30.57;;;;;;;-1.01;49.94;101615.31;1747298;82;21145;-62
2021/10/28 01:51:26;;;;;;;105.20;37.78;;;;;;;-1.02;50.00;101620.46;1746344;82;22096;-63
2021/10/28 01:54:01;;;;;;;95.57;37.63;;;;;;;-1.05;50.13;101620.08;1745620;82;21696;-63
2021/10/28 01:56:38;;;;;;;88.87;33.80;;;;;;;-1.07;50.18;101626.98;1746004;82;21715;-62
2021/10/28 01:59:12;;;;;;;86.35;32.73;;;;;;;-1.09;50.35;101623.59;1746968;82;21298;-64
2021/10/28 02:01:46;;;;;;;79.10;30.25;;;;;;;-1.09;50.47;101618.45;1746416;82;21224;-62
2021/10/28 02:04:23;;;;;;;69.62;27.95;;;;;;;-1.08;50.44;101616.74;1747032;82;21153;-62
2021/10/28 02:06:57;;;;;;;69.80;27.37;;;;;;;-1.10;50.42;101617.22;1747108;82;21284;-62
2021/10/28 02:09:30;;;;;;;;;;;;;;;-1.14;50.40;101624.55;1749641;82;21721;-63
2021/10/28 02:12:07;;;;;;;71.75;26.87;;;;;;;-1.19;50.45;101620.78;1744071;82;20229;-63
2021/10/28 02:14:42;;;;;;;72.10;26.73;;;;;;;-1.22;50.57;101622.59;1735906;82;21138;-62
2021/10/28 02:17:16;;;;;;;63.05;24.80;;;;;;;-1.23;50.66;101616.59;1735488;82;21177;-63
2021/10/28 02:19:53;;;;;;;58.90;23.75;;;;;;;-1.23;50.63;101612.73;1737445;82;21792;-62
2021/10/28 02:22:27;;;;;;;52.03;21.25;;;;;;;-1.21;50.63;101615.27;1736065;82;22025;-62
2021/10/28 02:25:06;;;;;;;60.35;23.15;;;;;;;-1.19;50.58;101614.80;1737224;82;21256;-63
2021/10/28 02:27:41;;;;;;;64.05;26.65;;;;;;;-1.19;50.43;101616.94;1735329;82;21154;-62
2021/10/28 02:30:17;;;;;;;63.95;26.52;;;;;;;-1.17;50.43;101611.32;1737043;82;21150;-62
2021/10/28 02:32:55;;;;;;;56.85;23.52;;;;;;;-1.15;50.50;101616.02;1735831;82;21231;-63
2021/10/28 02:35:31;;;;;;;68.20;26.85;;;;;;;-1.11;50.40;101619.36;1737724;82;21308;-62
2021/10/28 02:38:07;;;;;;;58.13;26.57;;;;;;;-1.11;50.37;101624.50;1736771;82;21193;-62
2021/10/28 02:40:44;;;;;;;68.70;27.50;;;;;;;-1.10;50.38;101623.17;1737245;82;21304;-63
2021/10/28 02:43:22;;;;;;;60.50;24.57;;;;;;;-1.09;50.33;101624.03;1736601;82;21329;-62
2021/10/28 02:45:58;;;;;;;61.28;26.25;;;;;;;-1.11;50.36;101624.50;1737258;82;21190;-62
2021/10/28 02:48:35;;;;;;;69.90;27.35;;;;;;;-1.13;50.32;101635.25;1736319;82;21186;-63
2021/10/28 02:51:15;;;;;;;70.42;25.30;;;;;;;-1.17;50.32;101628.48;1737029;82;21166;-64
2021/10/28 02:53:51;;;;;;;68.80;25.17;;;;;;;-1.18;50.40;101632.77;1736132;82;21193;-62
2021/10/28 02:56:29;;;;;;;56.73;25.15;;;;;;;-1.21;50.42;101634.11;1735895;82;21300;-62
2021/10/28 02:59:06;;;;;;;61.05;27.42;;;;;;;-1.24;50.62;101630.77;1736248;82;21300;-61
2021/10/28 03:01:49;;;;;;;66.50;25.40;;;;;;;-1.27;50.68;101626.95;1737078;82;21154;-62
2021/10/28 03:04:23;;;;;;;79.77;27.65;;;;;;;-1.33;50.72;101633.05;1735867;82;21162;-62
2021/10/28 03:07:00;;;;;;;73.55;28.30;;;;;;;-1.37;50.81;101633.55;1737086;82;21143;-62
2021/10/28 03:09:36;;;;;;;84.10;31.35;;;;;;;-1.40;50.86;101633.60;1735775;82;21182;-62
2021/10/28 03:12:11;;;;;;;73.33;29.50;;;;;;;-1.44;50.97;101631.97;1739877;82;21335;-63
2021/10/28 03:14:57;;;;;;;78.95;31.93;;;;;;;-1.43;51.08;101643.92;1726522;82;21214;-62
2021/10/28 03:17:31;;;;;;;88.75;34.20;;;;;;;-1.45;51.17;101636.69;1724407;83;21356;-61
2021/10/28 03:25:39;;;;;;;68.70;28.23;;;;;;;-1.44;51.30;101631.12;1724354;83;21264;-64
2021/10/28 03:28:19;;;;;;;63.42;24.30;;;;;;;-1.47;51.30;101620.46;1723676;83;21162;-64
2021/10/28 03:31:01;;;;;;;68.92;26.48;;;;;;;-1.51;51.38;101625.69;1725752;83;21268;-64
2021/10/28 03:33:37;;;;;;;79.67;35.58;;;;;;;-1.56;51.57;101630.05;1724037;83;21213;-64
2021/10/28 03:36:16;;;;;;;83.62;30.95;;;;;;;-1.57;51.75;101634.76;1725482;83;21312;-64
2021/10/28 03:39:07;;;;;;;104.80;36.83;;;;;;;-1.58;51.81;101631.80;1699916;83;21293;-63
2021/10/28 03:44:36;;;;;;;91.12;30.88;;;;;;;-1.66;51.68;101620.80;1724347;83;21333;-63
2021/10/28 04:07:11;;;;;;;109.05;39.48;;;;;;;-1.86;52.54;101624.98;1724783;83;21300;-64
2021/10/28 04:18:37;;;;;;;82.67;31.37;;;;;;;-1.63;52.67;101623.33;1730234;83;21769;-64
2021/10/28 04:21:15;;;;;;;90.70;32.15;;;;;;;-1.59;52.65;101616.83;1726668;83;21182;-63
2021/10/28 04:30:06;;;;;;;87.72;33.60;;;;;;;-0.86;51.87;101616.27;1712820;81;21209;-64
2021/10/28 04:32:40;;;;;;;105.92;36.05;;;;;;;-0.41;51.10;101615.75;1753258;81;21304;-64
2021/10/28 04:35:15;;;;;;;93.87;34.45;;;;;;;0.18;50.11;101625.08;1717711;82;21991;-65
2021/10/28 04:37:48;;;;;;;93.82;34.58;;;;;;;0.66;49.22;101624.70;1740035;82;21343;-63
2021/10/28 04:40:24;;;;;;;82.10;34.13;;;;;;;1.17;48.37;101617.72;1740343;81;21276;-65
2021/10/28 04:42:59;;;;;;;95.42;34.70;;;;;;;1.74;47.46;101613.41;1734938;82;21593;-64
2021/10/28 04:45:36;;;;;;;111.15;35.58;;;;;;;2.19;46.26;101624.45;1713085;82;21271;-65
2021/10/28 04:48:11;;;;;;;99.45;36.93;;;;;;;2.41;45.65;101630.14;1713404;82;22151;-64
2021/10/28 04:50:50;;;;;;;88.07;36.88;;;;;;;2.78;44.88;101627.16;1713395;83;21336;-65
2021/10/28 04:53:28;;;;;;;103.72;40.90;;;;;;;3.23;44.15;101624.66;1718606;82;21385;-64
2021/10/28 04:56:03;;;;;;;119.00;47.05;;;;;;;3.63;43.36;101620.14;1745093;82;21209;-66
2021/10/28 04:58:39;;;;;;;107.83;44.10;;;;;;;4.07;42.62;101628.28;1683382;85;21272;-62
2021/10/28 05:05:22;;;;;;;104.58;39.80;;;;;;;5.24;40.77;101620.21;1712822;82;21542;-69
2021/10/28 05:07:55;;;;;;;88.87;37.83;;;;;;;6.15;39.13;101621.98;1747430;82;21296;-63
2021/10/28 05:10:31;;;;;;;94.10;42.10;;;;;;;6.58;38.56;101631.09;1714116;83;21599;-65
2021/10/28 05:17:17;;;;;;;91.25;36.30;;;;;;;7.17;37.29;101629.30;1707203;83;21282;-72
2021/10/28 05:19:53;;;;;;;73.62;30.82;;;;;;;7.11;36.97;101625.28;1701022;84;21272;-71
2021/10/28 05:22:27;;;;;;;62.53;26.95;;;;;;;6.97;36.94;101632.12;1707042;83;21800;-69
2021/10/28 05:25:00;;;;;;;56.10;27.37;;;;;;;6.74;36.91;101629.39;1701848;83;21241;-70
2021/10/28 05:27:34;;;;;;;61.73;27.87;;;;;;;6.50;37.00;101630.17;1700872;84;21273;-68
2021/10/28 05:30:09;;;;;;;77.55;29.35;;;;;;;6.22;37.26;101634.21;1702614;84;21261;-60
2021/10/28 05:32:43;;;;;;;74.32;29.27;;;;;;;6.02;37.54;101634.72;1700732;84;21201;-63
2021/10/28 05:35:17;;;;;;;56.88;28.10;;;;;;;6.00;37.68;101637.00;1701808;84;21189;-67
2021/10/28 05:37:51;;;;;;;70.70;27.98;;;;;;;5.93;37.75;101635.61;1702740;83;21323;-67
2021/10/28 05:44:34;;;;;;;82.45;30.27;;;;;;;5.75;38.27;101639.06;1740920;80;21133;-64
2021/10/28 05:47:07;;;;;;;68.33;27.90;;;;;;;5.63;38.64;101643.53;1733422;82;21201;-64
2021/10/28 05:49:41;;;;;;;46.43;21.17;;;;;;;5.77;38.84;101639.83;1729400;82;21600;-66
2021/10/28 05:52:15;;;;;;;54.20;25.68;;;;;;;6.38;38.44;101637.73;1766986;80;21319;-66
2021/10/28 05:54:50;;;;;;;62.98;26.75;;;;;;;7.17;37.29;101633.20;1768489;81;21357;-68
2021/10/28 05:57:25;;;;;;;66.90;28.77;;;;;;;8.19;36.05;101634.49;1733151;82;21190;-67
2021/10/28 05:59:58;;;;;;;64.37;29.03;;;;;;;9.11;34.72;101629.46;1767917;81;22150;-66
2021/10/28 06:02:36;;;;;;;63.70;30.82;;;;;;;9.47;34.04;101624.13;1765012;81;21717;-68
2021/10/28 06:05:11;;;;;;;62.38;29.85;;;;;;;9.66;33.62;101617.73;1730852;82;21304;-65
2021/10/28 06:07:45;;;;;;;62.15;29.18;;;;;;;9.94;33.37;101617.17;1766133;81;21952;-68
2021/10/28 06:10:19;;;;;;;68.42;29.75;;;;;;;10.32;32.80;101616.01;1749988;81;21149;-68
2021/10/28 06:17:08;;;;;;;70.95;31.02;;;;;;;10.08;32.46;101613.19;1798411;79;21176;-67
2021/10/28 06:23:50;;;;;;;53.05;28.40;;;;;;;9.28;33.98;101609.67;1799540;79;21116;-63
2021/10/28 06:26:25;;;;;;;60.52;26.70;;;;;;;8.72;35.11;101623.55;1798404;79;21589;-67
2021/10/28 06:29:01;;;;;;;90.80;37.88;;;;;;;8.42;35.99;101621.44;1799706;79;21232;-65
2021/10/28 06:31:38;;;;;;;64.55;27.35;;;;;;;8.35;36.54;101620.97;1799145;78;21359;-67
2021/10/28 06:34:32;;;;;;;51.35;23.35;;;;;;;8.34;36.88;101624.95;1799209;79;21455;-67
2021/10/28 06:37:00;;;;;;;41.00;21.10;;;;;;;8.29;37.18;101618.70;1796953;79;21969;-67
2021/10/28 06:39:31;;;;;;;44.15;21.15;;;;;;;8.15;37.56;101619.92;1799380;79;21343;-66
2021/10/28 06:42:07;;;;;;;64.00;24.20;;;;;;;7.94;38.01;101616.77;1799338;79;21786;-67
2021/10/28 06:44:44;;;;;;;49.23;22.42;;;;;;;7.75;38.42;101620.48;1788878;79;22010;-67
2021/10/28 06:47:17;;;;;;;51.48;23.60;;;;;;;7.54;38.89;101618.61;1788040;80;21300;-65
2021/10/28 06:49:51;;;;;;;57.95;26.23;;;;;;;7.38;39.49;101627.70;1795641;79;21998;-68
2021/10/28 06:52:33;;;;;;;57.70;25.70;;;;;;;7.23;39.99;101628.54;1798639;79;21387;-67
2021/10/28 06:55:05;;;;;;;46.37;24.07;;;;;;;7.09;40.57;101632.33;1797036;79;21253;-66
2021/10/28 06:57:57;;;;;;;53.42;24.65;;;;;;;6.94;41.17;101630.52;1798448;79;21311;-62
2021/10/28 07:03:02;;;;;;;60.33;25.85;;;;;;;6.69;42.07;101633.98;1799418;79;21354;-61
2021/10/28 07:05:37;;;;;;;55.00;26.02;;;;;;;6.63;42.48;101639.06;1798900;79;22124;-62
2021/10/28 07:08:16;;;;;;;55.50;23.98;;;;;;;6.60;42.82;101631.40;1799038;79;21209;-61
2021/10/28 07:10:54;;;;;;;59.67;26.52;;;;;;;6.57;43.05;101622.89;1799573;79;21342;-62
2021/10/28 07:13:31;;;;;;;53.05;24.23;;;;;;;6.50;43.24;101619.77;1799261;79;21747;-60
2021/10/28 07:21:55;;;;;;;49.15;24.82;;;;;;;6.41;43.93;101609.83;1758246;79;21296;-63
2021/10/28 07:55:09;;;;;;;52.70;20.20;;;;;;;6.55;46.31;101581.80;1799072;79;21408;-64
2021/10/28 07:57:46;;;;;;;43.78;23.00;;;;;;;6.58;46.50;101581.66;1798159;79;21260;-60
2021/10/28 08:16:12;;;;;;;49.27;21.57;;;;;;;7.40;46.27;101575.04;1780719;79;22036;-61
2021/10/28 08:18:48;;;;;;;47.10;20.62;;;;;;;7.64;45.85;101568.12;1796060;79;21319;-63
2021/10/28 08:24:03;;;;;;;49.50;23.15;;;;;;;8.01;45.30;101569.86;1798668;79;21189;-64
2021/10/28 08:33:27;;;;;;;48.38;21.97;;;;;;;8.38;44.81;101562.55;1799419;78;21180;-65
2021/10/28 08:36:10;;;;;;;47.48;22.35;;;;;;;8.60;44.67;101564.23;1799430;79;21694;-66
2021/10/28 08:38:44;;;;;;;45.25;21.02;;;;;;;8.73;44.52;101549.06;1799013;79;21577;-66
2021/10/28 08:45:33;;;;;;;41.00;20.37;;;;;;;8.99;44.30;101546.63;1797689;79;22578;-63
2021/10/28 08:48:08;;;;;;;46.42;21.62;;;;;;;9.06;44.16;101538.31;1798225;79;22138;-66
2021/10/28 08:51:20;;;;;;;43.42;22.13;;;;;;;9.15;44.19;101546.88;1776264;79;21180;-66
2021/10/28 08:54:20;;;;;;;45.50;22.22;;;;;;;9.19;44.01;101546.23;1822883;78;21618;-68
2021/10/28 08:56:53;;;;;;;50.50;23.90;;;;;;;9.15;44.12;101544.73;1720472;82;21224;-66
2021/10/28 08:59:31;;;;;;;40.35;21.60;;;;;;;9.11;44.35;101538.03;1730898;82;21657;-65
2021/10/28 09:27:05;;;;;;;;;;;;;;;9.83;44.74;101503.27;1792608;80;21379;-69
2021/10/28 09:52:02;;;;;;;40.40;20.30;;;;;;;11.11;45.58;101488.27;1789834;80;21303;-70
2021/10/28 09:55:04;;;;;;;42.73;20.55;;;;;;;11.38;45.21;101484.14;1786522;80;21241;-66
2021/10/28 09:57:51;;;;;;;48.28;21.80;;;;;;;11.57;44.61;101481.00;1784305;80;21331;-67
2021/10/28 10:00:38;;;;;;;42.00;20.70;;;;;;;11.73;44.39;101469.30;1793553;80;21283;-64
2021/10/28 10:03:20;;;;;;;54.45;20.72;;;;;;;11.85;44.37;101462.30;1792295;79;21205;-63
2021/10/28 10:05:56;;;;;;;40.92;20.02;;;;;;;11.89;44.50;101465.88;1793503;79;22164;-68
2021/10/28 10:08:25;;;;;;;40.95;19.23;;;;;;;11.94;44.82;101463.75;1792061;80;21551;-68
2021/10/28 10:10:58;;;;;;;;;;;;;;;12.02;45.07;101464.49;1796181;80;22085;-67
2021/10/28 10:13:32;;;;;;;39.70;18.10;;;;;;;12.08;45.23;101458.80;1792933;80;20385;-69
2021/10/28 10:16:10;;;;;;;39.42;19.05;;;;;;;12.12;45.35;101453.19;1793495;79;21287;-68
2021/10/28 10:18:43;;;;;;;40.83;19.82;;;;;;;12.22;45.38;101445.45;1764800;80;21375;-67
2021/10/28 10:21:30;;;;;;;42.87;20.70;;;;;;;12.31;45.47;101443.42;1765275;79;21323;-68
2021/10/28 11:27:05;;;;;;;29.12;14.40;;;;;;;12.49;48.31;101382.08;1793453;80;21291;-73
2021/10/28 13:53:22;;;;;;;18.77;7.37;;;;;;;11.05;52.76;101310.99;1796176;79;21597;-66
2021/10/28 15:00:53;;;;;;;17.25;9.50;;;;;;;10.78;55.82;101304.68;1787930;80;21304;-67
2021/10/28 15:28:58;;;;;;;21.05;11.53;;;;;;;10.20;61.98;101300.16;1778069;80;21306;-69
2021/10/28 15:34:57;;;;;;;20.68;12.07;;;;;;;10.18;62.48;101304.67;1789840;80;21750;-69
2021/10/28 15:39:35;;;;;;;26.90;14.07;;;;;;;10.18;62.81;101300.75;1764504;80;21258;-68
2021/10/28 15:42:33;;;;;;;27.73;13.95;;;;;;;10.15;62.85;101307.03;1789089;80;21291;-67
2021/10/28 15:51:02;;;;;;;30.05;16.67;;;;;;;10.08;63.24;101300.52;1788739;80;21524;-68
2021/10/28 15:53:21;;;;;;;28.30;15.98;;;;;;;10.08;63.20;101299.22;1779524;80;21145;-67
2021/10/28 16:21:54;;;;;;;98.12;42.05;;;;;;;10.03;65.18;101327.97;1798067;80;21130;-68
2021/10/28 16:24:34;;;;;;;73.10;34.98;;;;;;;10.03;65.49;101331.89;1797815;80;21292;-68
2021/10/28 16:27:07;;;;;;;42.50;22.17;;;;;;;10.01;65.86;101328.06;1797029;80;21474;-69
2021/10/28 16:29:42;;;;;;;34.48;19.30;;;;;;;10.02;66.18;101341.52;1798262;80;21272;-68
2021/10/28 16:32:18;;;;;;;39.08;21.40;;;;;;;10.04;66.54;101338.78;1794882;80;21228;-69
2021/10/28 16:34:56;;;;;;;54.05;25.25;;;;;;;10.02;66.81;101342.83;1791486;79;22059;-69
2021/10/28 16:37:34;;;;;;;65.90;37.55;;;;;;;10.02;67.12;101340.67;1788389;79;21563;-69
2021/10/28 16:40:13;;;;;;;69.00;37.63;;;;;;;10.01;67.25;101346.38;1775337;80;21318;-70
2021/10/28 16:42:58;;;;;;;62.73;34.43;;;;;;;10.01;67.38;101350.30;1776727;79;21255;-70
2021/10/28 16:45:32;;;;;;;60.05;34.10;;;;;;;9.99;67.48;101347.42;1774726;81;21161;-70
2021/10/28 16:48:12;;;;;;;63.28;33.20;;;;;;;9.99;67.64;101353.95;1775190;80;21243;-70
2021/10/28 16:50:49;;;;;;;97.60;49.93;;;;;;;9.97;67.91;101348.84;1738661;82;21696;-70
2021/10/28 16:53:30;;;;;;;131.12;63.42;;;;;;;9.98;68.04;101353.61;1725592;83;21588;-70
2021/10/28 16:56:07;;;;;;;90.35;45.10;;;;;;;9.95;68.22;101343.35;1726838;83;21273;-70
2021/10/28 16:58:44;;;;;;;65.52;32.75;;;;;;;9.93;68.54;101338.23;1726583;83;21320;-69
2021/10/28 17:01:19;;;;;;;58.73;28.70;;;;;;;9.94;69.08;101337.73;1726800;83;21189;-69
2021/10/28 17:03:55;;;;;;;54.40;24.98;;;;;;;9.95;69.43;101334.20;1726965;82;21312;-70
2021/10/28 17:06:30;;;;;;;44.93;23.92;;;;;;;9.96;69.74;101336.69;1726863;83;21257;-69
2021/10/28 17:09:08;;;;;;;35.78;19.90;;;;;;;9.99;70.06;101333.03;1725280;81;21628;-69
2021/10/28 17:11:54;;;;;;;40.70;20.10;;;;;;;9.99;70.30;101335.19;1725491;83;21795;-68
2021/10/28 17:14:29;;;;;;;37.05;18.80;;;;;;;10.02;70.55;101335.44;1727476;83;21331;-68
2021/10/28 17:17:04;;;;;;;29.10;17.23;;;;;;;10.05;70.74;101336.55;1728785;83;21680;-68
2021/10/28 17:19:41;;;;;;;28.27;16.20;;;;;;;10.09;70.96;101330.15;1727150;83;21196;-68
2021/10/28 17:22:15;;;;;;;29.57;15.63;;;;;;;10.13;71.11;101336.86;1727114;83;21161;-68
2021/10/28 17:24:50;;;;;;;26.37;14.98;;;;;;;10.17;71.27;101340.96;1727361;83;21260;-68
2021/10/28 17:27:26;;;;;;;24.23;15.18;;;;;;;10.21;71.50;101341.10;1728495;83;21265;-68
2021/10/28 17:30:07;;;;;;;32.20;17.80;;;;;;;10.25;71.77;101339.09;1708128;83;21169;-68
2021/10/28 17:32:45;;;;;;;25.92;16.00;;;;;;;10.27;72.03;101338.53;1728755;83;21249;-68
2021/10/28 17:35:21;;;;;;;30.62;17.65;;;;;;;10.27;72.15;101338.03;1727772;83;21630;-69
2021/10/28 17:37:56;;;;;;;34.92;19.60;;;;;;;10.30;72.33;101339.61;1706507;83;21150;-67
2021/10/28 17:40:33;;;;;;;35.58;19.62;;;;;;;10.31;72.42;101335.59;1726389;83;21153;-68
2021/10/28 17:43:11;;;;;;;31.65;18.98;;;;;;;10.33;72.46;101337.63;1728323;83;21244;-68
2021/10/28 17:45:55;;;;;;;32.33;20.32;;;;;;;10.36;72.52;101335.27;1727163;83;21275;-68
2021/10/28 17:48:35;;;;;;;32.35;18.37;;;;;;;10.38;72.53;101338.14;1728580;83;21332;-69
2021/10/28 17:51:13;;;;;;;29.45;17.65;;;;;;;10.39;72.47;101339.80;1728922;83;22095;-69
2021/10/28 17:53:50;;;;;;;28.90;17.12;;;;;;;10.40;72.42;101341.48;1728723;83;21277;-70
2021/10/28 17:56:24;;;;;;;27.42;17.17;;;;;;;10.42;72.36;101341.36;1727725;83;21298;-69
2021/10/28 17:58:58;;;;;;;30.40;17.23;;;;;;;10.43;72.21;101345.20;1728577;83;21152;-69
2021/10/28 18:01:39;;;;;;;28.45;16.60;;;;;;;10.46;72.15;101343.65;1727706;83;21303;-68
2021/10/28 18:04:12;;;;;;;30.30;17.90;;;;;;;10.48;72.11;101344.87;1728497;82;21815;-69
2021/10/28 18:06:50;;;;;;;30.65;18.25;;;;;;;10.49;72.05;101344.75;1731033;83;21161;-68
2021/10/28 18:09:24;;;;;;;33.70;18.37;;;;;;;10.50;72.00;101341.66;1711138;83;21279;-69
2021/10/28 18:12:00;;;;;;;32.23;18.32;;;;;;;10.51;71.89;101350.70;1730740;83;21267;-68
2021/10/28 18:14:37;;;;;;;26.80;16.82;;;;;;;10.52;71.74;101345.00;1728031;83;21760;-69
2021/10/28 18:17:11;;;;;;;29.12;17.73;;;;;;;10.50;71.63;101342.51;1730582;83;21292;-68
2021/10/28 18:19:44;;;;;;;34.85;17.82;;;;;;;10.51;71.54;101344.16;1729260;83;21165;-68
2021/10/28 18:22:22;;;;;;;31.85;16.70;;;;;;;10.51;71.48;101342.85;1730807;83;21283;-69
2021/10/28 18:24:58;;;;;;;28.80;16.87;;;;;;;10.52;71.43;101345.00;1730042;83;21815;-68
2021/10/28 18:27:39;;;;;;;31.95;17.70;;;;;;;10.52;71.43;101353.70;1730625;83;21193;-67
2021/10/28 18:30:16;;;;;;;31.65;17.25;;;;;;;10.54;71.38;101354.89;1729994;83;21303;-68
2021/10/28 18:32:51;;;;;;;33.05;18.05;;;;;;;10.55;71.34;101361.34;1731493;83;21803;-68
2021/10/28 18:35:28;;;;;;;33.00;17.85;;;;;;;10.55;71.29;101356.11;1729747;83;21291;-68
2021/10/28 18:38:01;;;;;;;31.90;18.02;;;;;;;10.57;71.27;101352.91;1730822;83;21260;-68
2021/10/28 18:40:36;;;;;;;38.28;18.90;;;;;;;10.59;71.21;101358.02;1730107;83;21272;-69
2021/10/28 18:43:16;;;;;;;34.80;18.05;;;;;;;10.60;71.11;101351.85;1730753;83;21146;-69
2021/10/28 18:46:01;;;;;;;35.00;18.82;;;;;;;10.62;71.08;101357.81;1729718;83;21158;-69
2021/10/28 18:48:44;;;;;;;37.73;18.60;;;;;;;10.65;71.08;101354.48;1730492;83;21181;-69
2021/10/28 18:51:17;;;;;;;39.85;20.90;;;;;;;10.67;71.04;101357.02;1727459;83;21701;-69
2021/10/28 18:54:00;;;;;;;38.23;18.90;;;;;;;10.67;71.07;101355.70;1728910;83;21256;-69
2021/10/28 18:56:35;;;;;;;32.73;18.82;;;;;;;10.68;71.19;101358.20;1730672;83;21261;-69
2021/10/28 18:59:16;;;;;;;32.15;19.20;;;;;;;10.68;71.22;101363.44;1730793;83;21240;-69
2021/10/28 19:01:50;;;;;;;36.15;19.77;;;;;;;10.68;71.25;101357.36;1726350;83;21854;-69
2021/10/28 19:04:25;;;;;;;36.50;19.25;;;;;;;10.69;71.30;101365.59;1728611;82;21156;-69
2021/10/28 19:06:58;;;;;;;32.78;17.82;;;;;;;10.68;71.36;101362.13;1729501;83;21315;-69
2021/10/28 19:09:35;;;;;;;31.82;18.25;;;;;;;10.69;71.50;101366.90;1730457;83;21263;-69
2021/10/28 19:12:14;;;;;;;28.87;17.92;;;;;;;10.70;71.65;101368.55;1729515;83;21169;-69
2021/10/28 19:14:54;;;;;;;30.48;18.23;;;;;;;10.70;71.75;101367.25;1731033;83;21707;-69
2021/10/28 19:17:30;;;;;;;26.57;16.75;;;;;;;10.71;71.89;101369.77;1729238;83;22189;-69
2021/10/28 19:20:08;;;;;;;36.65;18.35;;;;;;;10.70;72.05;101372.02;1730354;83;21280;-69
2021/10/28 19:22:43;;;;;;;31.48;17.37;;;;;;;10.71;72.20;101380.72;1732434;82;21276;-69
2021/10/28 19:25:21;;;;;;;30.00;17.57;;;;;;;10.71;72.42;101385.95;1736620;82;21157;-70
2021/10/28 19:27:58;;;;;;;33.92;18.95;;;;;;;10.70;72.85;101383.80;1736857;82;21129;-69
2021/10/28 19:30:43;;;;;;;32.20;19.65;;;;;;;10.67;73.24;101379.27;1734620;82;21680;-69
2021/10/28 19:35:53;;;;;;;32.33;18.90;;;;;;;10.58;74.35;101383.86;1719090;83;21158;-70
2021/10/28 19:47:01;;;;;;;32.08;19.62;;;;;;;10.48;76.10;101388.06;1729604;83;21153;-69
2021/10/28 19:49:37;;;;;;;33.00;19.10;;;;;;;10.44;76.49;101373.03;1730622;83;21244;-69
2021/10/28 19:52:15;;;;;;;32.38;18.90;;;;;;;10.43;76.73;101385.77;1727444;83;21177;-69
2021/10/28 19:54:51;;;;;;;30.50;18.20;;;;;;;10.42;76.88;101389.79;1728499;83;21839;-70
2021/10/28 19:57:30;;;;;;;28.47;17.77;;;;;;;10.42;76.97;101392.41;1728732;83;21209;-69
2021/10/28 20:00:13;;;;;;;30.25;17.55;;;;;;;10.41;77.07;101392.87;1729173;83;21208;-70
2021/10/28 20:05:31;;;;;;;29.15;17.25;;;;;;;10.41;77.35;101399.41;1730444;83;21799;-70
2021/10/28 20:21:45;;;;;;;32.67;17.90;;;;;;;10.45;77.73;101411.83;1792236;80;21335;-69
2021/10/28 20:24:21;;;;;;;31.02;17.92;;;;;;;10.45;77.76;101417.07;1791953;80;21268;-69
2021/10/28 20:26:55;;;;;;;28.90;17.17;;;;;;;10.45;77.87;101411.38;1793534;80;21304;-69
2021/10/28 20:29:29;;;;;;;;;;;;;;;10.44;77.94;101418.00;1795282;80;21287;-69
2021/10/28 20:32:02;;;;;;;27.40;17.15;;;;;;;10.44;78.05;101416.23;1793059;79;20245;-70
2021/10/28 20:34:50;;;;;;;24.40;16.52;;;;;;;10.42;78.12;101413.34;1772941;80;21121;-69
2021/10/28 20:37:13;;;;;;;28.38;16.87;;;;;;;10.42;78.21;101417.28;1791202;80;21268;-70
2021/10/28 20:39:51;;;;;;;28.12;16.90;;;;;;;10.44;78.27;101418.00;1782807;80;21160;-69
2021/10/28 20:42:36;;;;;;;30.20;17.37;;;;;;;10.44;78.30;101412.30;1772890;81;21328;-70
2021/10/28 20:45:01;;;;;;;26.00;16.87;;;;;;;10.43;78.28;101421.12;1774400;80;21248;-69
2021/10/28 20:47:41;;;;;;;29.63;18.48;;;;;;;10.42;78.32;101419.43;1735703;82;21171;-69
2021/10/28 20:50:18;;;;;;;29.20;18.33;;;;;;;10.41;78.34;101415.62;1737628;82;21295;-69
2021/10/28 20:52:54;;;;;;;27.48;16.30;;;;;;;10.39;78.39;101410.97;1707541;84;21298;-69
2021/10/28 20:55:30;;;;;;;27.93;17.98;;;;;;;10.39;78.44;101410.47;1707335;84;21231;-69
2021/10/28 20:58:10;;;;;;;29.05;16.32;;;;;;;10.38;78.43;101408.81;1736556;82;21274;-69
2021/10/28 21:00:51;;;;;;;22.42;15.23;;;;;;;10.41;78.42;101410.39;1708379;84;21766;-69
2021/10/28 21:03:29;;;;;;;25.32;16.25;;;;;;;10.41;78.36;101403.84;1739712;82;21213;-70
2021/10/28 21:06:04;;;;;;;26.73;16.70;;;;;;;10.42;78.33;101406.34;1777114;81;21129;-69
2021/10/28 21:08:42;;;;;;;27.25;16.37;;;;;;;10.40;78.30;101405.61;1753132;81;21153;-69
2021/10/28 21:11:40;;;;;;;29.23;16.75;;;;;;;10.41;78.30;101403.84;1763663;81;21324;-69